EBOSELLX

Guest
Details From EBOS - Oostende
To ELLX - Luxembourg
Flight Number -
Tags generated
Created
Modified
Stats Distance 159 nm / 294 km
Max Altitude 19,200 ft / 5,852 m
Waypoints 3
Social Downloads 0
Likes 0
Share VATSIM

Download

Looking for another format? Having issues loading an existing format? Contact us
Advertisement - Login to hide

Notes

Basic altitude profile: - Ascent Rate: 2500ft/min - Ascent Speed: 250kts - Cruise Altitude: 35000ft - Cruise Speed: 420kts - Descent Rate: 1500ft/min - Descent Speed: 250kts

Route

EBOS SISGA ELLX

ID Type Via Altitude Latitude Longitude Leg Dist Tot Dist Heading (true) Name
O EBOS APT - 0 ft / 0 m 51.19997˚ 2.87501˚ - 0 nm - Oostende
SISGA FIX - 19,200 ft / 5,852 m 50.61797˚ 4.05657˚ 56 nm 56 nm 128° / 128° -
O ELLX APT - 0 ft / 0 m 49.62660˚ 6.21151˚ 102 nm 158 nm 125° / 126° Luxembourg

Altitude Profile

Advertisement - Login to hide

EBOS

Details ICAO EBOS (OST)
Name Oostende
Region Belgium
Timezone Europe/Brussels (UTC+1.0)
Stats Elevation 13 ft / 4 m (AMSL)
Location 51.199967° 2.875008°
Runways 1
Magnetic Variation 0.590° E

METAR

EBOS 182150Z 34003KT 9000 SCT021 04/02 Q1032 NOSIG

Decode

TAF

TAF EBOS 181723Z 1818/1924 35010KT 9999 SCT015 SCT030 TEMPO 1900/1910 4000 BR BKN004 PROB30 TEMPO 1903/1908 1200 BCFG BECMG 1906/1908 29008KT

Decode

Departure Runways

ID Width Length Bearing (true) Bearing (mag) Surface Threshold Offset Overrun Length
08 148 ft / 45 m 10,515 ft / 3,205 m 76.36° 75.77° Asphalt 984 ft / 300 m 0 ft / 0 m
26 148 ft / 45 m 10,515 ft / 3,205 m 256.39° 255.80° Asphalt 1,362 ft / 415 m 0 ft / 0 m

ELLX

Details ICAO ELLX (LUX)
Name Luxembourg
Region Luxembourg
Timezone Europe/Luxembourg (UTC+1.0)
Stats Elevation 1,158 ft / 353 m (AMSL)
Location 49.626599° 6.211506°
Runways 1
Magnetic Variation 1.691° E

METAR

ELLX 182150Z 36005KT 270V020 9999 FEW015 BKN022 03/03 Q1028 NOSIG

Decode

TAF

TAF ELLX 181700Z 1818/1924 35007KT 9999 BKN012 TEMPO 1818/1909 2000 BR SCT001 BKN003 PROB40 TEMPO 1818/1909 0500 FG BKN001 BECMG 1915/1918 22006KT TEMPO 1915/1924 2000 DZ BR BKN003

Decode

Destination Runways

ID Width Length Bearing (true) Bearing (mag) Surface Threshold Offset Overrun Length
06 197 ft / 60 m 13,135 ft / 4,004 m 60.14° 58.45° Asphalt 0 ft / 0 m 0 ft / 0 m
24 197 ft / 60 m 13,135 ft / 4,004 m 240.18° 238.49° Asphalt 0 ft / 0 m 180 ft / 55 m

Approach Navaids

Runway Type Ident Frequency Range Bearing (true) Bearing (mag) Slope Elevation
06 Localiser ILE 109.90 MHz 18 nm / 33 km 60.21° 58.51° - 1,158 ft / 353 m (AMSL)
06 Glidescope ILE 109.90 MHz 10 nm / 19 km 60.16° 58.47° 3.00° 1,158 ft / 353 m (AMSL)
06 DME ILE 109.90 MHz 18 nm / 33 km - - - 1,158 ft / 353 m (AMSL)
24 Localiser ILW 110.70 MHz 18 nm / 33 km 239.94° 238.25° - 1,158 ft / 353 m (AMSL)
24 Glidescope ILW 110.70 MHz 10 nm / 19 km 240.16° 238.47° 3.00° 1,158 ft / 353 m (AMSL)
24 DME ILW 110.70 MHz 18 nm / 33 km - - - 1,158 ft / 353 m (AMSL)

Popular Alternatives